PWSweather.com
Personal Weather Stations
Station Observations
WAIROAHB
Wairoa, Northern Hawkes Bay -NZ 4108

WairoaNorthern Hawkes Bay -NZ 4108

Lat: -39.04516934, Lon: 177.4263989

Elevation: 156

Station Type: WS3083

http://wairoa.net/weather/index.htm

High Low Average
Temperature 78.8°F26.0°C 58.3°F14.6°C 67.4°F19.7°C
Dew Point 65.6°F18.7°C 58.0°F14.4°C 61.2°F16.2°C
Winds 10.7 mph 17.2 kmh Calm Calm 4.0 mph E6.4 kmh E
Wind Gusts 22.8 mph36.7 kmh -- 8.0 mph12.9 kmh
Humidity 99% 49% 82%
Pressure 29.65 in1004.1 mb 29.51 in999.3 mb -
Precipitation 0.01 in0.3 mm - -
Hour Temp Dew Point Humidity Winds Wind Gusts Pressure Precip Precip Rate Daily Precip Total
12:00 AM 61.3°F16.3°C 60.8°F16.0°C 98% Calm Calm -- 29.65 in1004.1 mb 0.01 in0.3 mm 0.00 in0.0 mm 0.01 in0.3 mm
12:10 AM 61.5°F16.4°C 61.0°F16.1°C 98% Calm Calm -- 29.65 in1004.1 mb 0.01 in0.3 mm 0.00 in0.0 mm 0.01 in0.3 mm
12:20 AM 61.5°F16.4°C 61.0°F16.1°C 98% Calm Calm -- 29.65 in1004.1 mb 0.01 in0.3 mm 0.00 in0.0 mm 0.01 in0.3 mm
12:30 AM 61.5°F16.4°C 61.0°F16.1°C 98% Calm Calm 1.6 mph2.6 kmh 29.65 in1004.1 mb 0.01 in0.3 mm 0.00 in0.0 mm 0.01 in0.3 mm
12:40 AM 61.2°F16.2°C 60.6°F15.9°C 98% Calm Calm 4.5 mph7.2 kmh 29.65 in1004.1 mb 0.01 in0.3 mm 0.00 in0.0 mm 0.01 in0.3 mm
12:50 AM 61.2°F16.2°C 60.6°F15.9°C 98% 1.6 mph NNW2.6 kmh NNW 3.1 mph5.0 kmh 29.64 in1003.7 mb 0.01 in0.3 mm 0.00 in0.0 mm 0.01 in0.3 mm
01:00 AM 61.0°F16.1°C 60.4°F15.8°C 98% 3.8 mph NNW6.1 kmh NNW 5.4 mph8.7 kmh 29.64 in1003.7 mb 0.00 in0.0 mm 0.00 in0.0 mm 0.01 in0.3 mm
01:10 AM 61.0°F16.1°C 60.4°F15.8°C 98% 2.2 mph NNW3.5 kmh NNW 5.4 mph8.7 kmh 29.63 in1003.4 mb 0.00 in0.0 mm 0.00 in0.0 mm 0.01 in0.3 mm
01:20 AM 61.0°F16.1°C 60.4°F15.8°C 98% 3.1 mph N5.0 kmh N 5.4 mph8.7 kmh 29.62 in1003.0 mb 0.00 in0.0 mm 0.00 in0.0 mm 0.01 in0.3 mm
01:30 AM 61.0°F16.1°C 60.4°F15.8°C 98% 0.7 mph N1.1 kmh N 4.5 mph7.2 kmh 29.63 in1003.4 mb 0.00 in0.0 mm 0.00 in0.0 mm 0.01 in0.3 mm
01:40 AM 60.6°F15.9°C 60.4°F15.8°C 99% Calm Calm 4.5 mph7.2 kmh 29.62 in1003.0 mb 0.00 in0.0 mm 0.00 in0.0 mm 0.01 in0.3 mm
01:50 AM 60.4°F15.8°C 60.2°F15.7°C 99% Calm Calm -- 29.61 in1002.7 mb 0.00 in0.0 mm 0.00 in0.0 mm 0.01 in0.3 mm
02:00 AM 60.3°F15.7°C 60.0°F15.6°C 99% Calm Calm -- 29.61 in1002.7 mb 0.00 in0.0 mm 0.00 in0.0 mm 0.01 in0.3 mm
02:10 AM 59.9°F15.5°C 59.6°F15.3°C 99% Calm Calm -- 29.61 in1002.7 mb 0.00 in0.0 mm 0.00 in0.0 mm 0.01 in0.3 mm
02:20 AM 59.9°F15.5°C 59.6°F15.3°C 99% Calm Calm -- 29.60 in1002.4 mb 0.00 in0.0 mm 0.00 in0.0 mm 0.01 in0.3 mm
02:30 AM 59.7°F15.4°C 59.5°F15.3°C 99% 1.6 mph NW2.6 kmh NW 5.4 mph8.7 kmh 29.60 in1002.4 mb 0.00 in0.0 mm 0.00 in0.0 mm 0.01 in0.3 mm
02:40 AM 59.5°F15.3°C 59.3°F15.2°C 99% 1.6 mph N2.6 kmh N 3.8 mph6.1 kmh 29.60 in1002.4 mb 0.00 in0.0 mm 0.00 in0.0 mm 0.01 in0.3 mm
02:50 AM 59.5°F15.3°C 59.3°F15.2°C 99% 2.2 mph N3.5 kmh N 4.5 mph7.2 kmh 29.60 in1002.4 mb 0.00 in0.0 mm 0.00 in0.0 mm 0.01 in0.3 mm
03:00 AM 59.2°F15.1°C 58.9°F14.9°C 99% 2.2 mph N3.5 kmh N 4.5 mph7.2 kmh 29.59 in1002.0 mb 0.00 in0.0 mm 0.00 in0.0 mm 0.01 in0.3 mm
03:10 AM 59.0°F15.0°C 58.7°F14.8°C 99% Calm Calm 3.8 mph6.1 kmh 29.59 in1002.0 mb 0.00 in0.0 mm 0.00 in0.0 mm 0.01 in0.3 mm
03:20 AM 58.8°F14.9°C 58.6°F14.8°C 99% 1.6 mph N2.6 kmh N 5.4 mph8.7 kmh 29.59 in1002.0 mb 0.00 in0.0 mm 0.00 in0.0 mm 0.01 in0.3 mm
03:30 AM 58.8°F14.9°C 58.6°F14.8°C 99% 2.2 mph NNW3.5 kmh NNW 5.4 mph8.7 kmh 29.59 in1002.0 mb 0.00 in0.0 mm 0.00 in0.0 mm 0.01 in0.3 mm
03:40 AM 58.8°F14.9°C 58.6°F14.8°C 99% Calm Calm 6.0 mph9.7 kmh 29.59 in1002.0 mb 0.00 in0.0 mm 0.00 in0.0 mm 0.01 in0.3 mm
03:50 AM 58.8°F14.9°C 58.6°F14.8°C 99% Calm Calm -- 29.59 in1002.0 mb 0.00 in0.0 mm 0.00 in0.0 mm 0.01 in0.3 mm
04:00 AM 58.8°F14.9°C 58.6°F14.8°C 99% 2.2 mph N3.5 kmh N 3.8 mph6.1 kmh 29.60 in1002.4 mb 0.00 in0.0 mm 0.00 in0.0 mm 0.01 in0.3 mm
04:10 AM 58.8°F14.9°C 58.6°F14.8°C 99% 3.1 mph N5.0 kmh N 4.5 mph7.2 kmh 29.60 in1002.4 mb 0.00 in0.0 mm 0.00 in0.0 mm 0.01 in0.3 mm
04:20 AM 58.8°F14.9°C 58.6°F14.8°C 99% 1.6 mph NNW2.6 kmh NNW 6.0 mph9.7 kmh 29.60 in1002.4 mb 0.00 in0.0 mm 0.00 in0.0 mm 0.01 in0.3 mm
04:30 AM 59.0°F15.0°C 58.7°F14.8°C 99% Calm Calm 5.4 mph8.7 kmh 29.60 in1002.4 mb 0.00 in0.0 mm 0.00 in0.0 mm 0.01 in0.3 mm
04:40 AM 59.2°F15.1°C 58.9°F14.9°C 99% Calm Calm 0.7 mph1.1 kmh 29.60 in1002.4 mb 0.00 in0.0 mm 0.00 in0.0 mm 0.01 in0.3 mm
04:50 AM 58.8°F14.9°C 58.6°F14.8°C 99% 2.2 mph NE3.5 kmh NE 3.8 mph6.1 kmh 29.60 in1002.4 mb 0.00 in0.0 mm 0.00 in0.0 mm 0.01 in0.3 mm
05:00 AM 58.6°F14.8°C 58.4°F14.7°C 99% Calm Calm 3.8 mph6.1 kmh 29.60 in1002.4 mb 0.00 in0.0 mm 0.00 in0.0 mm 0.01 in0.3 mm
05:10 AM 58.6°F14.8°C 58.4°F14.7°C 99% Calm Calm -- 29.60 in1002.4 mb 0.00 in0.0 mm 0.00 in0.0 mm 0.01 in0.3 mm
05:20 AM 58.3°F14.6°C 58.0°F14.4°C 99% Calm Calm -- 29.60 in1002.4 mb 0.00 in0.0 mm 0.00 in0.0 mm 0.01 in0.3 mm
05:30 AM 58.3°F14.6°C 58.0°F14.4°C 99% Calm Calm -- 29.59 in1002.0 mb 0.00 in0.0 mm 0.00 in0.0 mm 0.01 in0.3 mm
05:40 AM 58.3°F14.6°C 58.0°F14.4°C 99% 1.6 mph NNW2.6 kmh NNW 3.1 mph5.0 kmh 29.60 in1002.4 mb 0.00 in0.0 mm 0.00 in0.0 mm 0.01 in0.3 mm
05:50 AM 58.6°F14.8°C 58.4°F14.7°C 99% 1.6 mph N2.6 kmh N 3.8 mph6.1 kmh 29.61 in1002.7 mb 0.00 in0.0 mm 0.00 in0.0 mm 0.01 in0.3 mm
06:00 AM 59.2°F15.1°C 58.9°F14.9°C 99% Calm Calm 3.1 mph5.0 kmh 29.60 in1002.4 mb 0.00 in0.0 mm 0.00 in0.0 mm 0.01 in0.3 mm
06:10 AM 59.7°F15.4°C 59.5°F15.3°C 99% Calm Calm 3.8 mph6.1 kmh 29.60 in1002.4 mb 0.00 in0.0 mm 0.00 in0.0 mm 0.01 in0.3 mm
06:20 AM 60.4°F15.8°C 60.2°F15.7°C 99% 3.1 mph NW5.0 kmh NW 4.5 mph7.2 kmh 29.60 in1002.4 mb 0.00 in0.0 mm 0.00 in0.0 mm 0.01 in0.3 mm
06:30 AM 60.4°F15.8°C 60.2°F15.7°C 99% 5.4 mph NW8.7 kmh NW 6.9 mph11.1 kmh 29.60 in1002.4 mb 0.00 in0.0 mm 0.00 in0.0 mm 0.01 in0.3 mm
06:40 AM 60.6°F15.9°C 60.4°F15.8°C 99% 4.5 mph NW7.2 kmh NW 6.9 mph11.1 kmh 29.60 in1002.4 mb 0.00 in0.0 mm 0.00 in0.0 mm 0.01 in0.3 mm
06:50 AM 61.0°F16.1°C 60.4°F15.8°C 98% 3.8 mph NW6.1 kmh NW 6.9 mph11.1 kmh 29.60 in1002.4 mb 0.00 in0.0 mm 0.00 in0.0 mm 0.01 in0.3 mm
07:00 AM 61.9°F16.6°C 61.3°F16.3°C 98% 0.7 mph N1.1 kmh N 8.3 mph13.4 kmh 29.60 in1002.4 mb 0.00 in0.0 mm 0.00 in0.0 mm 0.01 in0.3 mm
07:10 AM 63.1°F17.3°C 62.3°F16.8°C 97% 2.2 mph N3.5 kmh N 8.3 mph13.4 kmh 29.60 in1002.4 mb 0.00 in0.0 mm 0.00 in0.0 mm 0.01 in0.3 mm
07:20 AM 65.1°F18.4°C 64.9°F18.3°C 99% 2.2 mph N3.5 kmh N 6.0 mph9.7 kmh 29.60 in1002.4 mb 0.00 in0.0 mm 0.00 in0.0 mm 0.01 in0.3 mm
07:30 AM 66.4°F19.1°C 63.4°F17.4°C 90% 2.2 mph N3.5 kmh N 6.0 mph9.7 kmh 29.61 in1002.7 mb 0.00 in0.0 mm 0.00 in0.0 mm 0.01 in0.3 mm
07:40 AM 67.6°F19.8°C 63.7°F17.6°C 87% 0.7 mph N1.1 kmh N 6.0 mph9.7 kmh 29.60 in1002.4 mb 0.00 in0.0 mm 0.00 in0.0 mm 0.01 in0.3 mm
07:50 AM 68.4°F20.2°C 63.4°F17.4°C 84% 3.1 mph NNE5.0 kmh NNE 6.9 mph11.1 kmh 29.61 in1002.7 mb 0.00 in0.0 mm 0.00 in0.0 mm 0.01 in0.3 mm
08:00 AM 68.7°F20.4°C 62.7°F17.1°C 81% 3.1 mph N5.0 kmh N 7.6 mph12.2 kmh 29.62 in1003.0 mb 0.00 in0.0 mm 0.00 in0.0 mm 0.01 in0.3 mm
08:10 AM 70.5°F21.4°C 63.4°F17.4°C 78% 3.8 mph N6.1 kmh N 6.9 mph11.1 kmh 29.61 in1002.7 mb 0.00 in0.0 mm 0.00 in0.0 mm 0.01 in0.3 mm
08:20 AM 71.4°F21.9°C 63.1°F17.3°C 75% 0.7 mph N1.1 kmh N 5.4 mph8.7 kmh 29.61 in1002.7 mb 0.00 in0.0 mm 0.00 in0.0 mm 0.01 in0.3 mm
08:30 AM 73.0°F22.8°C 64.7°F18.2°C 75% Calm Calm 4.5 mph7.2 kmh 29.61 in1002.7 mb 0.00 in0.0 mm 0.00 in0.0 mm 0.01 in0.3 mm
08:40 AM 74.5°F23.6°C 64.1°F17.8°C 70% 0.7 mph E1.1 kmh E 5.4 mph8.7 kmh 29.61 in1002.7 mb 0.00 in0.0 mm 0.00 in0.0 mm 0.01 in0.3 mm
08:50 AM 72.3°F22.4°C 62.4°F16.9°C 71% 3.1 mph NNE5.0 kmh NNE 8.3 mph13.4 kmh 29.61 in1002.7 mb 0.00 in0.0 mm 0.00 in0.0 mm 0.01 in0.3 mm
09:00 AM 74.8°F23.8°C 64.4°F18.0°C 70% 3.8 mph N6.1 kmh N 6.0 mph9.7 kmh 29.60 in1002.4 mb 0.00 in0.0 mm 0.00 in0.0 mm 0.01 in0.3 mm
09:10 AM 73.9°F23.3°C 63.2°F17.3°C 69% 0.7 mph NNE1.1 kmh NNE 13.0 mph20.9 kmh 29.60 in1002.4 mb 0.00 in0.0 mm 0.00 in0.0 mm 0.01 in0.3 mm
09:20 AM 74.3°F23.5°C 63.5°F17.5°C 69% 6.0 mph NNW9.7 kmh NNW 7.6 mph12.2 kmh 29.60 in1002.4 mb 0.00 in0.0 mm 0.00 in0.0 mm 0.01 in0.3 mm
09:30 AM 75.2°F24.0°C 62.2°F16.8°C 64% 4.5 mph NE7.2 kmh NE 7.6 mph12.2 kmh 29.59 in1002.0 mb 0.00 in0.0 mm 0.00 in0.0 mm 0.01 in0.3 mm
09:40 AM 75.4°F24.1°C 62.4°F16.9°C 64% 3.8 mph NNW6.1 kmh NNW 8.3 mph13.4 kmh 29.59 in1002.0 mb 0.00 in0.0 mm 0.00 in0.0 mm 0.01 in0.3 mm
09:50 AM 77.0°F25.0°C 63.0°F17.2°C 62% 3.1 mph N5.0 kmh N 7.6 mph12.2 kmh 29.59 in1002.0 mb 0.00 in0.0 mm 0.00 in0.0 mm 0.01 in0.3 mm
10:00 AM 76.8°F24.9°C 62.9°F17.2°C 62% 1.6 mph N2.6 kmh N 8.3 mph13.4 kmh 29.59 in1002.0 mb 0.00 in0.0 mm 0.00 in0.0 mm 0.01 in0.3 mm
10:10 AM 72.7°F22.6°C 62.8°F17.1°C 71% 6.9 mph SE11.1 kmh SE 8.3 mph13.4 kmh 29.58 in1001.7 mb 0.00 in0.0 mm 0.00 in0.0 mm 0.01 in0.3 mm
10:20 AM 70.9°F21.6°C 63.3°F17.4°C 77% 6.9 mph SW11.1 kmh SW 10.7 mph17.2 kmh 29.58 in1001.7 mb 0.00 in0.0 mm 0.00 in0.0 mm 0.01 in0.3 mm
10:30 AM 71.8°F22.1°C 64.6°F18.1°C 78% 7.6 mph WSW12.2 kmh WSW 13.0 mph20.9 kmh 29.57 in1001.4 mb 0.00 in0.0 mm 0.00 in0.0 mm 0.01 in0.3 mm
10:40 AM 72.0°F22.2°C 64.0°F17.8°C 76% 6.9 mph ESE11.1 kmh ESE 11.4 mph18.3 kmh 29.57 in1001.4 mb 0.00 in0.0 mm 0.00 in0.0 mm 0.01 in0.3 mm
10:50 AM 71.6°F22.0°C 64.0°F17.8°C 77% 7.6 mph SE12.2 kmh SE 10.7 mph17.2 kmh 29.57 in1001.4 mb 0.00 in0.0 mm 0.00 in0.0 mm 0.01 in0.3 mm
11:00 AM 70.0°F21.1°C 63.9°F17.7°C 81% 4.5 mph SSE7.2 kmh SSE 9.8 mph15.8 kmh 29.57 in1001.4 mb 0.00 in0.0 mm 0.00 in0.0 mm 0.01 in0.3 mm
11:10 AM 69.4°F20.8°C 64.4°F18.0°C 84% 6.9 mph WSW11.1 kmh WSW 11.4 mph18.3 kmh 29.56 in1001.0 mb 0.00 in0.0 mm 0.00 in0.0 mm 0.01 in0.3 mm
11:30 AM 72.0°F22.2°C 64.4°F18.0°C 77% 5.4 mph NW8.7 kmh NW 9.2 mph14.8 kmh 29.55 in1000.7 mb 0.00 in0.0 mm 0.00 in0.0 mm 0.01 in0.3 mm
11:40 AM 74.8°F23.8°C 65.6°F18.7°C 73% 3.8 mph SE6.1 kmh SE 12.1 mph19.5 kmh 29.55 in1000.7 mb 0.00 in0.0 mm 0.00 in0.0 mm 0.01 in0.3 mm
12:00 PM 77.0°F25.0°C 58.1°F14.5°C 52% 9.8 mph NW15.8 kmh NW 16.8 mph27.0 kmh 29.54 in1000.3 mb 0.00 in0.0 mm 0.00 in0.0 mm 0.01 in0.3 mm
12:10 PM 77.7°F25.4°C 58.7°F14.8°C 52% 6.0 mph N9.7 kmh N 15.2 mph24.5 kmh 29.55 in1000.7 mb 0.00 in0.0 mm 0.00 in0.0 mm 0.01 in0.3 mm
12:20 PM 78.8°F26.0°C 58.1°F14.5°C 49% 9.2 mph N14.8 kmh N 15.9 mph25.6 kmh 29.54 in1000.3 mb 0.00 in0.0 mm 0.00 in0.0 mm 0.01 in0.3 mm
12:30 PM 77.5°F25.3°C 59.1°F15.1°C 53% 9.8 mph NNE15.8 kmh NNE 22.8 mph36.7 kmh 29.54 in1000.3 mb 0.00 in0.0 mm 0.00 in0.0 mm 0.01 in0.3 mm
12:40 PM 75.2°F24.0°C 58.5°F14.7°C 56% 9.8 mph NNE15.8 kmh NNE 22.8 mph36.7 kmh 29.55 in1000.7 mb 0.00 in0.0 mm 0.00 in0.0 mm 0.01 in0.3 mm
12:50 PM 72.7°F22.6°C 59.8°F15.4°C 64% 9.8 mph NNE15.8 kmh NNE 20.6 mph33.2 kmh 29.55 in1000.7 mb 0.00 in0.0 mm 0.00 in0.0 mm 0.01 in0.3 mm
01:00 PM 70.9°F21.6°C 61.0°F16.1°C 71% 8.3 mph N13.4 kmh N 20.6 mph33.2 kmh 29.55 in1000.7 mb 0.00 in0.0 mm 0.00 in0.0 mm 0.01 in0.3 mm
01:10 PM 70.7°F21.5°C 62.4°F16.9°C 75% 6.9 mph NE11.1 kmh NE 14.5 mph23.3 kmh 29.55 in1000.7 mb 0.00 in0.0 mm 0.00 in0.0 mm 0.01 in0.3 mm
01:20 PM 70.5°F21.4°C 61.5°F16.4°C 73% 7.6 mph NE12.2 kmh NE 11.4 mph18.3 kmh 29.55 in1000.7 mb 0.00 in0.0 mm 0.00 in0.0 mm 0.01 in0.3 mm
01:30 PM 70.5°F21.4°C 61.9°F16.6°C 74% 3.1 mph NE5.0 kmh NE 11.4 mph18.3 kmh 29.55 in1000.7 mb 0.00 in0.0 mm 0.00 in0.0 mm 0.01 in0.3 mm
01:40 PM 71.1°F21.7°C 62.4°F16.9°C 74% 6.0 mph NNE9.7 kmh NNE 11.4 mph18.3 kmh 29.55 in1000.7 mb 0.00 in0.0 mm 0.00 in0.0 mm 0.01 in0.3 mm
01:50 PM 71.4°F21.9°C 62.0°F16.7°C 72% 8.3 mph NNE13.4 kmh NNE 10.7 mph17.2 kmh 29.54 in1000.3 mb 0.00 in0.0 mm 0.00 in0.0 mm 0.01 in0.3 mm
02:00 PM 72.0°F22.2°C 62.1°F16.7°C 71% 7.6 mph NE12.2 kmh NE 13.0 mph20.9 kmh 29.55 in1000.7 mb 0.00 in0.0 mm 0.00 in0.0 mm 0.01 in0.3 mm
02:10 PM 72.7°F22.6°C 62.8°F17.1°C 71% 5.4 mph NNE8.7 kmh NNE 12.1 mph19.5 kmh 29.54 in1000.3 mb 0.00 in0.0 mm 0.00 in0.0 mm 0.01 in0.3 mm
02:20 PM 73.2°F22.9°C 62.5°F16.9°C 69% 7.6 mph NE12.2 kmh NE 14.5 mph23.3 kmh 29.54 in1000.3 mb 0.00 in0.0 mm 0.00 in0.0 mm 0.01 in0.3 mm
02:30 PM 73.8°F23.2°C 61.7°F16.5°C 66% 8.3 mph N13.4 kmh N 15.9 mph25.6 kmh 29.54 in1000.3 mb 0.00 in0.0 mm 0.00 in0.0 mm 0.01 in0.3 mm
02:40 PM 73.6°F23.1°C 62.0°F16.7°C 67% 8.3 mph NNE13.4 kmh NNE 16.8 mph27.0 kmh 29.54 in1000.3 mb 0.00 in0.0 mm 0.00 in0.0 mm 0.01 in0.3 mm
02:50 PM 73.4°F23.0°C 62.2°F16.8°C 68% 8.3 mph NE13.4 kmh NE 15.2 mph24.5 kmh 29.54 in1000.3 mb 0.00 in0.0 mm 0.00 in0.0 mm 0.01 in0.3 mm
03:00 PM 73.2°F22.9°C 62.9°F17.2°C 70% 7.6 mph NE12.2 kmh NE 15.2 mph24.5 kmh 29.54 in1000.3 mb 0.00 in0.0 mm 0.00 in0.0 mm 0.01 in0.3 mm
03:10 PM 72.1°F22.3°C 62.2°F16.8°C 71% 9.2 mph NNE14.8 kmh NNE 13.6 mph21.9 kmh 29.54 in1000.3 mb 0.00 in0.0 mm 0.00 in0.0 mm 0.01 in0.3 mm
03:20 PM 72.9°F22.7°C 62.9°F17.2°C 71% 5.4 mph NE8.7 kmh NE 12.1 mph19.5 kmh 29.53 in1000.0 mb 0.00 in0.0 mm 0.00 in0.0 mm 0.01 in0.3 mm
03:30 PM 73.6°F23.1°C 62.8°F17.1°C 69% 6.9 mph NE11.1 kmh NE 15.2 mph24.5 kmh 29.53 in1000.0 mb 0.00 in0.0 mm 0.00 in0.0 mm 0.01 in0.3 mm
03:40 PM 72.1°F22.3°C 62.2°F16.8°C 71% 5.4 mph NE8.7 kmh NE 15.2 mph24.5 kmh 29.53 in1000.0 mb 0.00 in0.0 mm 0.00 in0.0 mm 0.01 in0.3 mm
03:50 PM 71.6°F22.0°C 62.1°F16.7°C 72% 7.6 mph N12.2 kmh N 14.5 mph23.3 kmh 29.53 in1000.0 mb 0.00 in0.0 mm 0.00 in0.0 mm 0.01 in0.3 mm
04:00 PM 70.7°F21.5°C 62.4°F16.9°C 75% 7.6 mph NNE12.2 kmh NNE 13.6 mph21.9 kmh 29.53 in1000.0 mb 0.00 in0.0 mm 0.00 in0.0 mm 0.01 in0.3 mm
04:10 PM 70.5°F21.4°C 63.4°F17.4°C 78% 6.9 mph NNE11.1 kmh NNE 13.0 mph20.9 kmh 29.52 in999.7 mb 0.00 in0.0 mm 0.00 in0.0 mm 0.01 in0.3 mm
04:20 PM 71.4°F21.9°C 63.5°F17.5°C 76% 6.0 mph NE9.7 kmh NE 12.1 mph19.5 kmh 29.52 in999.7 mb 0.00 in0.0 mm 0.00 in0.0 mm 0.01 in0.3 mm
04:30 PM 71.4°F21.9°C 63.1°F17.3°C 75% 10.7 mph NE17.2 kmh NE 14.5 mph23.3 kmh 29.52 in999.7 mb 0.00 in0.0 mm 0.00 in0.0 mm 0.01 in0.3 mm
04:40 PM 71.2°F21.8°C 62.9°F17.2°C 75% 5.4 mph NNE8.7 kmh NNE 14.5 mph23.3 kmh 29.51 in999.3 mb 0.00 in0.0 mm 0.00 in0.0 mm 0.01 in0.3 mm
04:50 PM 71.2°F21.8°C 62.9°F17.2°C 75% 6.0 mph NNE9.7 kmh NNE 11.4 mph18.3 kmh 29.52 in999.7 mb 0.00 in0.0 mm 0.00 in0.0 mm 0.01 in0.3 mm
05:00 PM 71.2°F21.8°C 62.9°F17.2°C 75% 9.2 mph N14.8 kmh N 12.1 mph19.5 kmh 29.51 in999.3 mb 0.00 in0.0 mm 0.00 in0.0 mm 0.01 in0.3 mm
05:10 PM 72.0°F22.2°C 62.9°F17.2°C 73% 6.0 mph NE9.7 kmh NE 12.1 mph19.5 kmh 29.52 in999.7 mb 0.00 in0.0 mm 0.00 in0.0 mm 0.01 in0.3 mm
05:20 PM 72.1°F22.3°C 62.2°F16.8°C 71% 5.4 mph NNE8.7 kmh NNE 10.7 mph17.2 kmh 29.52 in999.7 mb 0.00 in0.0 mm 0.00 in0.0 mm 0.01 in0.3 mm
05:30 PM 73.9°F23.3°C 62.7°F17.1°C 68% 6.0 mph NE9.7 kmh NE 13.6 mph21.9 kmh 29.52 in999.7 mb 0.00 in0.0 mm 0.00 in0.0 mm 0.01 in0.3 mm
05:40 PM 73.2°F22.9°C 61.2°F16.2°C 66% 6.9 mph NNE11.1 kmh NNE 15.2 mph24.5 kmh 29.52 in999.7 mb 0.00 in0.0 mm 0.00 in0.0 mm 0.01 in0.3 mm
05:50 PM 72.0°F22.2°C 60.4°F15.8°C 67% 6.9 mph N11.1 kmh N 15.2 mph24.5 kmh 29.53 in1000.0 mb 0.00 in0.0 mm 0.00 in0.0 mm 0.01 in0.3 mm
06:00 PM 71.4°F21.9°C 60.7°F15.9°C 69% 6.9 mph N11.1 kmh N 13.0 mph20.9 kmh 29.52 in999.7 mb 0.00 in0.0 mm 0.00 in0.0 mm 0.01 in0.3 mm
06:10 PM 71.4°F21.9°C 61.2°F16.2°C 70% 7.6 mph NNE12.2 kmh NNE 12.1 mph19.5 kmh 29.52 in999.7 mb 0.00 in0.0 mm 0.00 in0.0 mm 0.01 in0.3 mm
06:20 PM 71.2°F21.8°C 60.6°F15.9°C 69% 9.8 mph NE15.8 kmh NE 13.0 mph20.9 kmh 29.52 in999.7 mb 0.00 in0.0 mm 0.00 in0.0 mm 0.01 in0.3 mm
06:30 PM 72.7°F22.6°C 59.8°F15.4°C 64% 4.5 mph NE7.2 kmh NE 13.0 mph20.9 kmh 29.53 in1000.0 mb 0.00 in0.0 mm 0.00 in0.0 mm 0.01 in0.3 mm
06:40 PM 72.9°F22.7°C 60.0°F15.6°C 64% 6.0 mph NE9.7 kmh NE 9.8 mph15.8 kmh 29.53 in1000.0 mb 0.00 in0.0 mm 0.00 in0.0 mm 0.01 in0.3 mm
06:50 PM 72.1°F22.3°C 59.3°F15.2°C 64% 4.5 mph NE7.2 kmh NE 9.2 mph14.8 kmh 29.53 in1000.0 mb 0.00 in0.0 mm 0.00 in0.0 mm 0.01 in0.3 mm
07:00 PM 70.3°F21.3°C 60.1°F15.6°C 70% 8.3 mph NE13.4 kmh NE 9.8 mph15.8 kmh 29.53 in1000.0 mb 0.00 in0.0 mm 0.00 in0.0 mm 0.01 in0.3 mm
07:10 PM 69.4°F20.8°C 60.4°F15.8°C 73% 4.5 mph NE7.2 kmh NE 9.8 mph15.8 kmh 29.53 in1000.0 mb 0.00 in0.0 mm 0.00 in0.0 mm 0.01 in0.3 mm
07:20 PM 69.1°F20.6°C 60.5°F15.8°C 74% 3.8 mph NE6.1 kmh NE 12.1 mph19.5 kmh 29.54 in1000.3 mb 0.00 in0.0 mm 0.00 in0.0 mm 0.01 in0.3 mm
07:30 PM 68.5°F20.3°C 60.3°F15.7°C 75% 3.8 mph NE6.1 kmh NE 6.9 mph11.1 kmh 29.54 in1000.3 mb 0.00 in0.0 mm 0.00 in0.0 mm 0.01 in0.3 mm
07:40 PM 67.8°F19.9°C 61.1°F16.2°C 79% 1.6 mph NNE2.6 kmh NNE 8.3 mph13.4 kmh 29.54 in1000.3 mb 0.00 in0.0 mm 0.00 in0.0 mm 0.01 in0.3 mm
07:50 PM 67.5°F19.7°C 61.1°F16.2°C 80% 4.5 mph N7.2 kmh N 6.0 mph9.7 kmh 29.55 in1000.7 mb 0.00 in0.0 mm 0.00 in0.0 mm 0.01 in0.3 mm
08:00 PM 67.5°F19.7°C 61.5°F16.4°C 81% 3.8 mph NNE6.1 kmh NNE 9.2 mph14.8 kmh 29.55 in1000.7 mb 0.00 in0.0 mm 0.00 in0.0 mm 0.01 in0.3 mm
08:10 PM 66.9°F19.4°C 62.0°F16.7°C 84% 3.8 mph NNE6.1 kmh NNE 10.7 mph17.2 kmh 29.55 in1000.7 mb 0.00 in0.0 mm 0.00 in0.0 mm 0.01 in0.3 mm
08:20 PM 66.4°F19.1°C 61.8°F16.6°C 85% 3.1 mph NE5.0 kmh NE 7.6 mph12.2 kmh 29.56 in1001.0 mb 0.00 in0.0 mm 0.00 in0.0 mm 0.01 in0.3 mm
08:30 PM 66.6°F19.2°C 61.6°F16.4°C 84% 2.2 mph NE3.5 kmh NE 6.0 mph9.7 kmh 29.57 in1001.4 mb 0.00 in0.0 mm 0.00 in0.0 mm 0.01 in0.3 mm
08:40 PM 66.7°F19.3°C 61.8°F16.6°C 84% 3.1 mph NE5.0 kmh NE 7.6 mph12.2 kmh 29.56 in1001.0 mb 0.00 in0.0 mm 0.00 in0.0 mm 0.01 in0.3 mm
08:50 PM 66.7°F19.3°C 61.8°F16.6°C 84% 4.5 mph NNE7.2 kmh NNE 6.0 mph9.7 kmh 29.57 in1001.4 mb 0.00 in0.0 mm 0.00 in0.0 mm 0.01 in0.3 mm
09:00 PM 66.7°F19.3°C 61.8°F16.6°C 84% 3.8 mph N6.1 kmh N 6.9 mph11.1 kmh 29.57 in1001.4 mb 0.00 in0.0 mm 0.00 in0.0 mm 0.01 in0.3 mm
09:10 PM 67.1°F19.5°C 61.8°F16.6°C 83% 3.1 mph NE5.0 kmh NE 6.9 mph11.1 kmh 29.57 in1001.4 mb 0.00 in0.0 mm 0.00 in0.0 mm 0.01 in0.3 mm
09:20 PM 67.1°F19.5°C 61.4°F16.3°C 82% 3.8 mph NE6.1 kmh NE 9.2 mph14.8 kmh 29.57 in1001.4 mb 0.00 in0.0 mm 0.00 in0.0 mm 0.01 in0.3 mm
09:30 PM 67.3°F19.6°C 61.3°F16.3°C 81% 7.6 mph N12.2 kmh N 9.2 mph14.8 kmh 29.57 in1001.4 mb 0.00 in0.0 mm 0.00 in0.0 mm 0.01 in0.3 mm
09:40 PM 67.5°F19.7°C 61.5°F16.4°C 81% 3.8 mph NNE6.1 kmh NNE 9.8 mph15.8 kmh 29.57 in1001.4 mb 0.00 in0.0 mm 0.00 in0.0 mm 0.01 in0.3 mm
09:50 PM 67.1°F19.5°C 61.4°F16.3°C 82% Calm Calm 6.0 mph9.7 kmh 29.57 in1001.4 mb 0.00 in0.0 mm 0.00 in0.0 mm 0.01 in0.3 mm
10:00 PM 66.9°F19.4°C 61.6°F16.4°C 83% 3.1 mph N5.0 kmh N 6.9 mph11.1 kmh 29.57 in1001.4 mb 0.00 in0.0 mm 0.00 in0.0 mm 0.01 in0.3 mm
10:10 PM 67.1°F19.5°C 61.4°F16.3°C 82% 1.6 mph NNE2.6 kmh NNE 6.9 mph11.1 kmh 29.57 in1001.4 mb 0.00 in0.0 mm 0.00 in0.0 mm 0.01 in0.3 mm
10:20 PM 67.1°F19.5°C 61.4°F16.3°C 82% 4.5 mph NNE7.2 kmh NNE 9.2 mph14.8 kmh 29.57 in1001.4 mb 0.00 in0.0 mm 0.00 in0.0 mm 0.01 in0.3 mm
10:30 PM 66.9°F19.4°C 61.3°F16.3°C 82% 3.8 mph N6.1 kmh N 7.6 mph12.2 kmh 29.56 in1001.0 mb 0.00 in0.0 mm 0.00 in0.0 mm 0.01 in0.3 mm
10:40 PM 66.9°F19.4°C 61.3°F16.3°C 82% 3.1 mph N5.0 kmh N 8.3 mph13.4 kmh 29.57 in1001.4 mb 0.00 in0.0 mm 0.00 in0.0 mm 0.01 in0.3 mm
10:50 PM 66.9°F19.4°C 61.3°F16.3°C 82% 3.8 mph NNE6.1 kmh NNE 7.6 mph12.2 kmh 29.57 in1001.4 mb 0.00 in0.0 mm 0.00 in0.0 mm 0.01 in0.3 mm
11:00 PM 66.6°F19.2°C 61.3°F16.3°C 83% 1.6 mph NNE2.6 kmh NNE 6.0 mph9.7 kmh 29.56 in1001.0 mb 0.00 in0.0 mm 0.00 in0.0 mm 0.01 in0.3 mm
11:10 PM 66.4°F19.1°C 61.1°F16.2°C 83% Calm Calm 4.5 mph7.2 kmh 29.57 in1001.4 mb 0.00 in0.0 mm 0.00 in0.0 mm 0.01 in0.3 mm
11:20 PM 66.0°F18.9°C 61.4°F16.3°C 85% 1.6 mph N2.6 kmh N 3.1 mph5.0 kmh 29.56 in1001.0 mb 0.00 in0.0 mm 0.00 in0.0 mm 0.01 in0.3 mm
11:30 PM 65.8°F18.8°C 61.2°F16.2°C 85% 2.2 mph N3.5 kmh N 4.5 mph7.2 kmh 29.56 in1001.0 mb 0.00 in0.0 mm 0.00 in0.0 mm 0.01 in0.3 mm
11:40 PM 65.3°F18.5°C 60.7°F15.9°C 85% Calm Calm 3.1 mph5.0 kmh 29.55 in1000.7 mb 0.00 in0.0 mm 0.00 in0.0 mm 0.01 in0.3 mm
11:50 PM 64.9°F18.3°C 60.7°F15.9°C 86% Calm Calm 2.2 mph3.5 kmh 29.55 in1000.7 mb 0.00 in0.0 mm 0.00 in0.0 mm 0.01 in0.3 mm